Time;durP1;ratioP1;P1;durP2;ratioP2;P2;SDS_P1;SDS_P2;PMS_P1;PMS_P2;Temp;Humidity;BMP_temperature;BMP_pressure;BME280_temperature;BME280_humidity;BME280_pressure;Samples;Min_cycle;Max_cycle;Signal;HPM_P1;HPM_P2
2023/01/07 00:01:38;;;;;;;99.72;48.83;;;8.60;99.90;;;;;;6153343;23;20322;-81
2023/01/07 00:04:04;;;;;;;89.85;49.80;;;8.60;99.90;;;;;;6154271;23;20016;-82
2023/01/07 00:06:33;;;;;;;83.63;48.33;;;8.70;99.90;;;;;;6154746;23;20033;-81
2023/01/07 00:08:59;;;;;;;85.35;48.63;;;8.80;99.90;;;;;;6152898;23;20464;-81
2023/01/07 00:11:27;;;;;;;89.05;48.80;;;8.90;99.90;;;;;;6154873;23;20121;-82
2023/01/07 00:13:54;;;;;;;103.80;51.35;;;8.90;99.90;;;;;;6154346;23;20201;-81
2023/01/07 00:16:22;;;;;;;86.18;49.30;;;8.90;99.90;;;;;;6152750;23;20028;-80
2023/01/07 00:18:51;;;;;;;91.00;48.10;;;9.00;99.90;;;;;;6152253;23;20014;-81
2023/01/07 00:21:18;;;;;;;91.47;49.35;;;9.00;99.90;;;;;;6152730;23;20379;-81
2023/01/07 00:23:45;;;;;;;103.25;49.90;;;9.10;99.90;;;;;;6152860;23;20017;-81
2023/01/07 00:26:16;;;;;;;81.43;45.22;;;9.10;99.90;;;;;;6154593;23;20048;-81
2023/01/07 00:28:44;;;;;;;89.85;48.05;;;9.10;99.90;;;;;;6152893;23;20021;-81
2023/01/07 00:31:16;;;;;;;98.97;49.72;;;9.10;99.90;;;;;;6154551;23;20040;-81
2023/01/07 00:34:05;;;;;;;83.95;46.03;;;9.30;99.90;;;;;;6152091;23;20021;-81
2023/01/07 00:36:38;;;;;;;90.13;46.53;;;9.20;99.90;;;;;;6152620;23;20137;-80
2023/01/07 00:39:05;;;;;;;88.28;47.55;;;9.20;99.90;;;;;;6154346;23;20460;-80
2023/01/07 00:41:31;;;;;;;79.72;44.75;;;9.20;99.90;;;;;;6154542;23;20009;-81
2023/01/07 00:43:57;;;;;;;81.93;45.88;;;9.30;99.90;;;;;;6154426;23;20041;-81
2023/01/07 00:46:23;;;;;;;86.68;45.53;;;9.30;99.90;;;;;;6152475;23;20380;-81
2023/01/07 00:48:49;;;;;;;85.97;44.33;;;9.30;99.90;;;;;;6127862;23;20105;-81
2023/01/07 00:51:16;;;;;;;89.68;45.95;;;9.30;99.90;;;;;;6153266;23;20024;-82
2023/01/07 00:53:42;;;;;;;78.15;42.65;;;9.40;99.90;;;;;;6154557;23;20009;-81
2023/01/07 00:56:09;;;;;;;87.15;43.83;;;9.40;99.90;;;;;;6152714;23;20024;-81
2023/01/07 00:58:34;;;;;;;82.85;44.35;;;9.40;99.90;;;;;;6152933;23;20017;-81
2023/01/07 01:01:01;;;;;;;74.85;42.45;;;9.40;99.90;;;;;;6152246;23;20022;-81
2023/01/07 01:03:28;;;;;;;82.25;43.17;;;9.90;99.90;;;;;;6153453;23;20013;-80
2023/01/07 01:05:54;;;;;;;90.63;45.42;;;9.50;99.90;;;;;;6154263;23;20124;-81
2023/01/07 01:08:21;;;;;;;77.72;41.65;;;9.50;99.90;;;;;;6152391;23;20405;-81
2023/01/07 01:10:47;;;;;;;96.88;46.38;;;9.50;99.90;;;;;;6127874;23;20045;-81
2023/01/07 01:13:14;;;;;;;93.60;43.05;;;10.00;99.90;;;;;;6152065;23;20018;-81
2023/01/07 01:15:44;;;;;;;70.40;41.20;;;9.70;99.90;;;;;;6152106;23;20025;-81
2023/01/07 01:18:11;;;;;;;75.97;42.90;;;9.50;99.90;;;;;;6153633;23;20014;-81
2023/01/07 01:20:36;;;;;;;90.90;45.58;;;9.70;99.90;;;;;;6152622;23;20093;-81
2023/01/07 01:23:03;;;;;;;83.05;43.00;;;9.60;99.90;;;;;;6154272;23;20041;-82
2023/01/07 01:25:28;;;;;;;76.28;41.42;;;9.60;99.90;;;;;;6152305;23;20087;-81
2023/01/07 01:27:54;;;;;;;79.97;43.95;;;9.60;99.90;;;;;;6152208;23;20444;-82
2023/01/07 01:30:20;;;;;;;85.97;43.05;;;9.60;99.90;;;;;;6152058;23;20009;-81
2023/01/07 01:32:45;;;;;;;81.45;43.80;;;9.80;99.90;;;;;;6151720;23;20063;-81
2023/01/07 01:35:11;;;;;;;76.13;42.00;;;9.70;99.90;;;;;;6152454;23;20014;-81
2023/01/07 01:37:37;;;;;;;83.47;44.15;;;9.70;99.90;;;;;;6152612;23;20084;-81
2023/01/07 01:40:04;;;;;;;82.07;42.80;;;9.70;99.90;;;;;;6152521;23;20021;-81
2023/01/07 01:42:30;;;;;;;69.32;40.47;;;9.70;99.90;;;;;;6153654;23;20009;-81
2023/01/07 01:45:00;;;;;;;95.20;46.30;;;9.90;99.90;;;;;;6152090;23;20094;-81
2023/01/07 01:47:43;;;;;;;80.45;42.85;;;9.70;99.90;;;;;;6151388;23;20096;-81
2023/01/07 01:50:17;;;;;;;67.20;40.38;;;9.80;99.90;;;;;;6154188;23;20076;-80
2023/01/07 01:52:59;;;;;;;86.07;44.40;;;9.80;99.90;;;;;;6152035;23;20013;-81
2023/01/07 01:55:37;;;;;;;75.25;41.08;;;9.90;99.90;;;;;;6153868;23;20055;-82
2023/01/07 01:58:07;;;;;;;84.40;42.63;;;9.90;99.90;;;;;;6151489;23;20010;-81
2023/01/07 02:00:34;;;;;;;76.05;42.03;;;9.90;99.90;;;;;;6152788;23;20463;-81
2023/01/07 02:03:00;;;;;;;69.80;41.08;;;9.90;99.90;;;;;;6151960;23;20014;-81
2023/01/07 02:05:31;;;;;;;65.43;39.80;;;9.90;99.90;;;;;;6151873;23;20018;-81
2023/01/07 02:07:57;;;;;;;67.32;39.50;;;9.90;99.90;;;;;;6152137;23;20064;-81
2023/01/07 02:10:23;;;;;;;69.75;41.60;;;10.00;99.90;;;;;;6151871;23;20021;-82
2023/01/07 02:13:16;;;;;;;64.72;41.42;;;10.00;99.90;;;;;;6153062;23;20013;-81
2023/01/07 02:15:56;;;;;;;71.45;41.05;;;10.00;99.90;;;;;;6126684;23;20071;-82
2023/01/07 02:18:54;;;;;;;72.85;42.40;;;10.00;99.90;;;;;;6153803;23;20116;-81
2023/01/07 02:21:43;;;;;;;72.63;42.50;;;10.00;99.90;;;;;;6151734;23;20014;-81
2023/01/07 02:24:30;;;;;;;62.40;40.55;;;10.00;99.90;;;;;;6152462;23;20009;-82
2023/01/07 02:27:04;;;;;;;69.18;43.47;;;10.10;99.90;;;;;;6151757;23;20092;-81
2023/01/07 02:30:02;;;;;;;60.60;41.45;;;10.20;99.90;;;;;;6151469;23;20076;-81
2023/01/07 02:32:47;;;;;;;59.22;40.28;;;10.10;99.90;;;;;;6153208;23;20028;-82
2023/01/07 02:35:13;;;;;;;57.70;40.30;;;10.10;99.90;;;;;;6153564;23;20014;-82
2023/01/07 02:37:49;;;;;;;73.32;44.28;;;10.10;99.90;;;;;;6151652;23;20064;-81
2023/01/07 02:40:25;;;;;;;55.17;39.25;;;10.10;99.90;;;;;;6151682;23;20010;-81
2023/01/07 02:43:20;;;;;;;60.60;41.55;;;10.10;99.90;;;;;;6153422;23;20036;-81
2023/01/07 02:46:10;;;;;;;59.08;40.33;;;10.20;99.90;;;;;;6151545;23;20056;-81
2023/01/07 02:48:37;;;;;;;53.35;39.30;;;10.20;99.90;;;;;;6153568;23;20014;-81
2023/01/07 02:51:03;;;;;;;52.40;39.20;;;10.30;99.90;;;;;;6153635;23;20017;-82
2023/01/07 02:53:30;;;;;;;48.58;37.53;;;10.20;99.90;;;;;;6127087;23;20013;-82
2023/01/07 02:56:11;;;;;;;48.75;39.28;;;10.20;99.90;;;;;;6153249;23;20018;-82
2023/01/07 02:59:00;;;;;;;53.38;40.00;;;10.20;99.90;;;;;;6150842;23;20021;-81
2023/01/07 03:01:52;;;;;;;50.38;39.00;;;10.20;99.90;;;;;;6115286;23;20013;-82
2023/01/07 03:04:43;;;;;;;50.97;39.53;;;10.20;99.90;;;;;;6153170;23;20020;-82
2023/01/07 03:07:22;;;;;;;45.70;37.65;;;10.20;99.90;;;;;;6151508;23;20032;-81
2023/01/07 03:10:22;;;;;;;47.75;36.75;;;10.20;99.90;;;;;;6153109;23;20028;-82
2023/01/07 03:13:01;;;;;;;44.80;37.45;;;10.20;99.90;;;;;;6154215;23;20555;-81
2023/01/07 03:15:37;;;;;;;43.97;36.53;;;10.20;99.90;;;;;;6155215;23;20053;-82
2023/01/07 03:18:23;;;;;;;41.42;36.42;;;10.20;99.90;;;;;;6155524;23;20009;-82
2023/01/07 03:20:55;;;;;;;45.15;36.80;;;10.20;99.90;;;;;;6155416;23;20014;-82
2023/01/07 03:23:24;;;;;;;44.28;37.08;;;10.20;99.90;;;;;;6153519;23;20017;-81
2023/01/07 03:25:52;;;;;;;39.08;34.83;;;10.20;99.90;;;;;;6153257;23;20017;-82
2023/01/07 03:28:23;;;;;;;39.78;35.17;;;10.20;99.90;;;;;;6152743;23;20017;-81
2023/01/07 03:30:51;;;;;;;40.30;35.88;;;10.20;99.90;;;;;;6155275;23;20337;-81
2023/01/07 03:33:24;;;;;;;45.10;36.67;;;10.20;99.90;;;;;;6153464;23;20080;-81
2023/01/07 03:35:53;;;;;;;39.63;35.33;;;10.50;99.90;;;;;;6153236;23;20092;-80
2023/01/07 03:38:21;;;;;;;37.85;33.58;;;10.10;99.90;;;;;;6155198;23;20029;-81
2023/01/07 03:40:47;;;;;;;41.75;35.33;;;10.10;99.90;;;;;;6153600;23;20013;-81
2023/01/07 03:43:14;;;;;;;39.33;35.05;;;10.10;99.90;;;;;;6154305;23;20013;-81
2023/01/07 03:45:40;;;;;;;38.53;34.63;;;10.20;99.90;;;;;;6153228;23;20445;-81
2023/01/07 03:48:06;;;;;;;39.92;35.38;;;10.10;99.90;;;;;;6153381;23;20049;-81
2023/01/07 03:50:32;;;;;;;37.00;33.28;;;10.10;99.90;;;;;;6153150;23;20024;-81
2023/01/07 03:52:58;;;;;;;37.60;33.45;;;10.10;99.90;;;;;;6153357;23;20040;-81
2023/01/07 03:55:23;;;;;;;39.13;34.85;;;10.10;99.90;;;;;;6154450;23;20017;-81
2023/01/07 03:57:49;;;;;;;37.83;32.42;;;10.10;99.90;;;;;;6152608;23;20013;-81
2023/01/07 04:00:15;;;;;;;40.47;34.05;;;10.10;99.90;;;;;;6153298;23;20092;-81
2023/01/07 04:02:42;;;;;;;38.17;33.60;;;10.10;99.90;;;;;;6153660;23;20020;-81
2023/01/07 04:05:08;;;;;;;38.35;34.25;;;10.10;99.90;;;;;;6128577;23;20032;-82
2023/01/07 04:07:34;;;;;;;37.85;33.78;;;10.30;99.90;;;;;;6154763;23;20068;-81
2023/01/07 04:10:00;;;;;;;37.33;33.33;;;10.10;99.90;;;;;;6154819;23;20164;-81
2023/01/07 04:12:26;;;;;;;41.65;34.45;;;10.20;99.90;;;;;;6153815;23;20488;-81
2023/01/07 04:14:51;;;;;;;41.28;34.10;;;10.20;99.90;;;;;;6128113;23;20048;-81
2023/01/07 04:17:17;;;;;;;36.90;32.30;;;10.10;99.90;;;;;;6154746;23;20084;-81
2023/01/07 04:19:43;;;;;;;37.65;33.58;;;10.10;99.90;;;;;;6152768;23;20015;-80
2023/01/07 04:22:09;;;;;;;35.28;30.98;;;10.10;99.90;;;;;;6154618;23;20005;-80
2023/01/07 04:24:35;;;;;;;38.90;33.25;;;10.20;99.90;;;;;;6152813;23;20009;-81
2023/01/07 04:27:01;;;;;;;35.53;31.75;;;10.10;99.90;;;;;;6152132;23;20072;-81
2023/01/07 04:29:26;;;;;;;36.80;32.17;;;10.20;99.90;;;;;;6154731;23;20018;-81
2023/01/07 04:31:52;;;;;;;34.42;30.65;;;10.20;99.90;;;;;;6152794;23;20045;-81
2023/01/07 04:34:18;;;;;;;41.28;32.47;;;10.20;99.90;;;;;;6154844;23;20041;-81
2023/01/07 04:36:44;;;;;;;35.67;30.77;;;10.20;99.90;;;;;;6154176;23;20006;-81
2023/01/07 04:39:11;;;;;;;33.20;29.60;;;10.20;99.90;;;;;;6152898;23;20021;-81
2023/01/07 04:41:37;;;;;;;31.73;28.05;;;10.10;99.90;;;;;;6154572;23;20017;-81
2023/01/07 04:44:02;;;;;;;33.38;29.65;;;10.10;99.90;;;;;;6152684;23;20340;-81
2023/01/07 04:46:28;;;;;;;33.15;29.25;;;10.10;99.90;;;;;;6152717;23;20073;-81
2023/01/07 04:48:54;;;;;;;36.28;29.80;;;10.10;99.90;;;;;;6152794;23;20484;-80
2023/01/07 04:51:20;;;;;;;37.70;29.48;;;10.10;99.90;;;;;;6152613;23;20025;-81
2023/01/07 04:53:46;;;;;;;33.30;28.15;;;10.10;99.90;;;;;;6152321;23;20017;-81
2023/01/07 04:56:12;;;;;;;30.42;26.92;;;10.20;99.90;;;;;;6153934;23;20408;-81
2023/01/07 04:58:37;;;;;;;30.20;27.05;;;10.10;99.90;;;;;;6128273;23;20018;-81
2023/01/07 05:01:03;;;;;;;33.35;27.77;;;10.10;99.90;;;;;;6152495;23;20045;-81
2023/01/07 05:03:30;;;;;;;33.95;27.92;;;10.10;99.90;;;;;;6152401;23;20392;-81
2023/01/07 05:05:56;;;;;;;32.53;27.13;;;10.10;99.90;;;;;;6154534;23;20014;-81
2023/01/07 05:08:21;;;;;;;31.98;27.05;;;10.10;99.90;;;;;;6154026;23;20056;-80
2023/01/07 05:10:51;;;;;;;30.45;26.42;;;10.10;99.90;;;;;;6153859;23;20068;-81
2023/01/07 05:13:18;;;;;;;28.70;25.77;;;10.10;99.90;;;;;;6152154;23;20014;-81
2023/01/07 05:15:44;;;;;;;26.55;23.75;;;10.10;99.90;;;;;;6152229;23;20112;-80
2023/01/07 05:18:09;;;;;;;27.65;24.65;;;10.00;99.90;;;;;;6152522;23;20089;-81
2023/01/07 05:20:35;;;;;;;29.33;25.88;;;10.00;99.90;;;;;;6152285;23;20018;-81
2023/01/07 05:23:01;;;;;;;28.77;25.38;;;10.00;99.90;;;;;;6151887;23;20013;-81
2023/01/07 05:25:26;;;;;;;28.23;23.90;;;10.00;99.90;;;;;;6127691;23;20024;-80
2023/01/07 05:27:52;;;;;;;25.83;23.02;;;10.00;99.90;;;;;;6154013;23;20013;-81
2023/01/07 05:30:18;;;;;;;28.38;25.00;;;10.20;99.90;;;;;;6152247;23;20092;-80
2023/01/07 05:32:43;;;;;;;29.13;24.30;;;10.00;99.90;;;;;;6153585;23;20385;-81
2023/01/07 05:35:09;;;;;;;28.95;24.25;;;10.00;99.90;;;;;;6152104;23;20072;-80
2023/01/07 05:37:34;;;;;;;27.20;23.65;;;10.00;99.90;;;;;;6151780;23;20010;-81
2023/01/07 05:40:00;;;;;;;26.33;23.52;;;9.90;99.90;;;;;;6153658;23;20109;-81
2023/01/07 05:42:26;;;;;;;25.98;22.25;;;10.00;99.90;;;;;;6152076;23;20013;-81
2023/01/07 05:44:52;;;;;;;23.90;21.40;;;10.30;99.90;;;;;;6154022;23;20006;-81
2023/01/07 05:47:17;;;;;;;29.00;22.80;;;10.10;99.90;;;;;;6152025;23;20460;-81
2023/01/07 05:49:43;;;;;;;27.73;21.73;;;10.00;99.90;;;;;;6153797;23;20010;-81
2023/01/07 05:52:12;;;;;;;23.35;20.67;;;10.00;99.90;;;;;;6153298;23;20377;-81
2023/01/07 05:54:37;;;;;;;27.55;21.95;;;10.00;99.90;;;;;;6153471;23;20453;-81
2023/01/07 05:57:03;;;;;;;25.38;20.83;;;10.00;99.90;;;;;;6127262;23;20028;-81
2023/01/07 05:59:29;;;;;;;25.48;21.40;;;10.10;99.90;;;;;;6152066;23;20014;-81
2023/01/07 06:01:54;;;;;;;22.08;18.90;;;10.10;99.90;;;;;;6151835;23;20381;-81
2023/01/07 06:04:20;;;;;;;21.83;19.52;;;10.10;99.90;;;;;;6151939;23;20017;-80
2023/01/07 06:06:46;;;;;;;24.05;19.95;;;10.10;99.90;;;;;;6153180;23;20021;-81
2023/01/07 06:09:11;;;;;;;23.33;19.27;;;10.10;99.90;;;;;;6151813;23;20010;-81
2023/01/07 06:11:37;;;;;;;22.55;19.02;;;10.00;99.90;;;;;;6153485;23;20072;-81
2023/01/07 06:14:02;;;;;;;22.67;19.42;;;10.10;99.90;;;;;;6153127;23;20018;-81
2023/01/07 06:16:28;;;;;;;23.67;19.73;;;10.00;99.90;;;;;;6153450;23;20014;-81
2023/01/07 06:18:54;;;;;;;22.27;18.63;;;10.00;99.90;;;;;;6151597;23;20014;-81
2023/01/07 06:21:20;;;;;;;28.48;18.55;;;10.00;99.90;;;;;;6152960;23;20012;-80
2023/01/07 06:23:46;;;;;;;23.75;18.27;;;10.00;99.90;;;;;;6153230;23;20009;-82
2023/01/07 06:26:11;;;;;;;18.58;16.58;;;10.00;99.90;;;;;;6151943;23;20052;-81
2023/01/07 06:28:37;;;;;;;19.90;16.77;;;10.00;99.90;;;;;;6153888;23;20441;-80
2023/01/07 06:31:03;;;;;;;19.33;16.63;;;10.00;99.90;;;;;;6152100;23;20017;-80
2023/01/07 06:33:28;;;;;;;19.52;17.33;;;10.00;99.90;;;;;;6151554;23;20014;-81
2023/01/07 06:35:54;;;;;;;23.55;16.60;;;10.00;99.90;;;;;;6151452;23;20049;-79
2023/01/07 06:38:20;;;;;;;20.20;17.65;;;10.10;99.90;;;;;;6151913;23;20196;-81
2023/01/07 06:40:45;;;;;;;17.58;15.25;;;10.00;99.90;;;;;;6153540;23;20029;-81
2023/01/07 06:43:11;;;;;;;21.73;16.85;;;10.20;99.90;;;;;;6151549;23;20013;-80
2023/01/07 06:45:37;;;;;;;21.60;17.38;;;10.00;99.90;;;;;;6151678;23;20025;-81
2023/01/07 06:48:03;;;;;;;22.75;17.50;;;10.00;99.90;;;;;;6151752;23;20096;-80
2023/01/07 06:50:28;;;;;;;18.45;16.30;;;10.00;99.90;;;;;;6151055;23;20071;-79
2023/01/07 06:52:55;;;;;;;17.25;15.38;;;10.10;99.90;;;;;;6151743;23;20028;-80
2023/01/07 06:55:21;;;;;;;19.75;16.02;;;10.20;99.90;;;;;;6126896;23;20022;-79
2023/01/07 06:57:47;;;;;;;20.98;15.00;;;10.00;99.90;;;;;;6151704;23;20068;-81
2023/01/07 07:00:13;;;;;;;18.73;15.52;;;10.00;99.90;;;;;;6151635;23;20010;-81
2023/01/07 07:02:39;;;;;;;16.77;14.52;;;9.90;99.90;;;;;;6151754;23;20009;-80
2023/01/07 07:05:04;;;;;;;16.75;14.95;;;9.90;99.90;;;;;;6152957;23;20362;-79
2023/01/07 07:07:30;;;;;;;17.20;15.40;;;9.90;99.90;;;;;;6153316;23;20009;-80
2023/01/07 07:09:56;;;;;;;17.02;14.20;;;9.90;99.90;;;;;;6151672;23;20009;-80
2023/01/07 07:12:21;;;;;;;16.88;14.27;;;9.90;99.90;;;;;;6153709;23;20010;-80
2023/01/07 07:14:47;;;;;;;15.40;13.80;;;9.90;99.90;;;;;;6152037;23;20013;-80
2023/01/07 07:17:13;;;;;;;16.40;13.70;;;10.00;99.90;;;;;;6151767;23;20032;-80
2023/01/07 07:19:39;;;;;;;16.48;14.00;;;10.00;99.90;;;;;;6151036;23;20013;-81
2023/01/07 07:22:04;;;;;;;15.05;12.90;;;10.00;99.90;;;;;;6151717;23;20019;-80
2023/01/07 07:24:30;;;;;;;17.90;13.63;;;10.10;99.90;;;;;;6153647;23;20018;-80
2023/01/07 07:26:56;;;;;;;16.70;14.20;;;10.00;99.90;;;;;;6153052;23;20491;-80
2023/01/07 07:29:21;;;;;;;17.33;13.68;;;10.00;99.90;;;;;;6151536;23;20452;-81
2023/01/07 07:31:47;;;;;;;16.83;13.00;;;10.20;99.90;;;;;;6153590;23;20009;-81
2023/01/07 07:34:12;;;;;;;18.98;13.45;;;10.10;99.90;;;;;;6147610;23;20515;-81
2023/01/07 07:36:38;;;;;;;16.23;12.32;;;10.10;99.90;;;;;;6152884;23;20014;-81
2023/01/07 07:39:04;;;;;;;15.88;13.63;;;10.20;99.90;;;;;;6126892;23;20018;-81
2023/01/07 07:41:30;;;;;;;14.15;12.60;;;10.10;99.90;;;;;;6153596;23;20084;-81
2023/01/07 07:43:56;;;;;;;17.05;12.25;;;10.20;99.90;;;;;;6152889;23;20330;-81
2023/01/07 07:46:22;;;;;;;13.98;12.52;;;9.90;99.90;;;;;;6152653;23;20049;-80
2023/01/07 07:48:48;;;;;;;16.13;13.45;;;10.00;99.90;;;;;;6150898;23;20045;-81
2023/01/07 07:51:14;;;;;;;15.98;12.73;;;10.00;99.90;;;;;;6153444;23;20057;-81
2023/01/07 07:53:40;;;;;;;12.52;11.18;;;10.00;99.90;;;;;;6153214;23;20344;-81
2023/01/07 07:56:07;;;;;;;14.75;11.65;;;10.00;99.90;;;;;;6152281;23;20014;-80
2023/01/07 07:58:33;;;;;;;15.60;11.65;;;9.90;99.90;;;;;;6154834;23;20312;-81
2023/01/07 08:00:58;;;;;;;14.40;11.90;;;10.10;99.90;;;;;;6154623;23;20013;-81
2023/01/07 08:03:24;;;;;;;15.20;11.77;;;9.90;99.90;;;;;;6152950;23;20158;-81
2023/01/07 08:05:49;;;;;;;13.77;11.63;;;9.90;99.90;;;;;;6153145;23;20068;-82
2023/01/07 08:08:15;;;;;;;12.10;10.45;;;10.00;99.90;;;;;;6153293;23;20024;-82
2023/01/07 08:10:41;;;;;;;13.82;10.52;;;9.90;99.90;;;;;;6128669;23;20096;-82
2023/01/07 08:13:08;;;;;;;14.10;11.13;;;10.00;99.90;;;;;;6154737;23;20021;-81
2023/01/07 08:15:34;;;;;;;14.10;11.15;;;9.90;99.90;;;;;;6154661;23;20100;-82
2023/01/07 08:18:03;;;;;;;12.25;9.55;;;9.90;99.90;;;;;;6152594;23;20033;-81
2023/01/07 08:20:29;;;;;;;12.65;10.25;;;9.90;99.90;;;;;;6153021;23;20037;-82
2023/01/07 08:22:59;;;;;;;13.90;10.10;;;9.90;99.90;;;;;;6153431;23;20017;-82
2023/01/07 08:25:25;;;;;;;10.43;9.20;;;9.90;99.90;;;;;;6128316;23;20198;-80
2023/01/07 08:27:50;;;;;;;11.70;9.82;;;9.80;99.90;;;;;;6152867;23;20097;-81
2023/01/07 08:30:16;;;;;;;11.52;9.18;;;9.90;99.90;;;;;;6128371;23;20013;-81
2023/01/07 08:32:42;;;;;;;10.85;8.68;;;9.90;99.90;;;;;;6154049;23;20487;-82
2023/01/07 08:35:08;;;;;;;12.98;9.27;;;9.90;99.90;;;;;;6151230;23;20014;-83
2023/01/07 08:37:36;;;;;;;12.73;8.93;;;9.80;99.90;;;;;;6150806;23;20220;-82
2023/01/07 08:40:03;;;;;;;10.85;8.45;;;9.90;99.90;;;;;;6127026;23;20017;-81
2023/01/07 08:42:29;;;;;;;13.23;8.98;;;9.90;99.90;;;;;;6154952;23;20056;-80
2023/01/07 08:44:55;;;;;;;13.52;7.95;;;10.20;99.90;;;;;;6154365;23;20036;-81
2023/01/07 08:47:21;;;;;;;10.05;8.18;;;9.90;99.90;;;;;;6154058;23;20024;-81
2023/01/07 08:49:46;;;;;;;10.30;7.20;;;9.90;99.90;;;;;;6153483;23;20353;-82
2023/01/07 08:52:12;;;;;;;10.82;7.88;;;10.00;99.90;;;;;;6154452;23;20017;-82
2023/01/07 08:54:38;;;;;;;12.25;7.25;;;10.00;99.90;;;;;;6154482;23;20021;-81
2023/01/07 08:57:04;;;;;;;9.73;7.68;;;9.90;99.90;;;;;;6152670;23;20053;-81
2023/01/07 08:59:30;;;;;;;10.48;7.20;;;10.00;99.90;;;;;;6152959;23;20022;-82
2023/01/07 09:01:56;;;;;;;10.45;7.30;;;10.00;99.90;;;;;;6152313;23;20343;-81
2023/01/07 09:04:22;;;;;;;10.10;7.45;;;10.00;99.90;;;;;;6154186;23;20132;-82
2023/01/07 09:06:47;;;;;;;8.98;7.22;;;10.00;99.90;;;;;;6154559;23;20060;-81
2023/01/07 09:09:15;;;;;;;13.13;7.40;;;10.00;99.90;;;;;;6153202;23;20028;-80
2023/01/07 09:11:41;;;;;;;12.55;7.38;;;10.00;99.90;;;;;;6154731;23;20411;-82
2023/01/07 09:14:07;;;;;;;9.77;7.85;;;10.00;99.90;;;;;;6152711;23;20044;-81
2023/01/07 09:16:33;;;;;;;9.05;6.68;;;10.00;99.90;;;;;;6153931;23;20417;-82
2023/01/07 09:18:58;;;;;;;9.40;7.13;;;9.90;99.90;;;;;;6154442;23;20088;-81
2023/01/07 09:21:24;;;;;;;7.60;6.72;;;10.10;99.90;;;;;;6152798;23;20014;-81
2023/01/07 09:23:50;;;;;;;8.48;6.85;;;9.90;99.90;;;;;;6153206;23;20021;-82
2023/01/07 09:26:16;;;;;;;9.48;7.03;;;9.90;99.90;;;;;;6128135;23;20021;-81
2023/01/07 09:28:41;;;;;;;10.43;7.07;;;9.90;99.90;;;;;;6154514;23;20017;-81
2023/01/07 09:31:07;;;;;;;8.02;6.68;;;9.90;99.90;;;;;;6151785;23;20463;-82
2023/01/07 09:33:33;;;;;;;8.13;6.40;;;9.80;99.90;;;;;;6152823;23;20021;-80
2023/01/07 09:35:59;;;;;;;6.95;6.07;;;10.00;99.90;;;;;;6152349;23;20467;-81
2023/01/07 09:38:24;;;;;;;9.13;6.55;;;9.90;99.90;;;;;;6156038;23;20152;-82
2023/01/07 09:40:51;;;;;;;8.30;6.32;;;9.80;99.90;;;;;;6152769;23;20148;-81
2023/01/07 09:43:41;;;;;;;10.48;6.90;;;9.80;99.90;;;;;;6127876;23;20014;-82
2023/01/07 09:46:10;;;;;;;9.98;7.03;;;9.80;99.90;;;;;;6154563;23;20020;-81
2023/01/07 09:48:41;;;;;;;10.00;6.63;;;9.80;99.90;;;;;;6154214;23;20132;-82
2023/01/07 09:51:28;;;;;;;7.60;6.78;;;9.80;99.90;;;;;;6127622;23;20409;-81
2023/01/07 09:53:58;;;;;;;8.07;6.90;;;9.70;99.90;;;;;;6152505;23;20017;-82
2023/01/07 09:56:27;;;;;;;9.80;6.53;;;9.80;99.90;;;;;;6152469;23;20049;-81
2023/01/07 09:58:54;;;;;;;8.35;6.43;;;9.70;99.90;;;;;;6153415;23;20041;-81
2023/01/07 10:01:20;;;;;;;6.88;5.72;;;9.70;99.90;;;;;;6127764;23;20125;-81
2023/01/07 10:04:11;;;;;;;10.23;6.25;;;9.70;99.90;;;;;;6153924;23;20461;-81
2023/01/07 10:07:05;;;;;;;6.90;5.90;;;9.70;99.90;;;;;;6152121;23;20022;-81
2023/01/07 10:09:43;;;;;;;7.43;6.07;;;9.70;99.90;;;;;;6152355;23;20028;-80
2023/01/07 10:12:41;;;;;;;11.00;5.85;;;9.80;99.90;;;;;;6153933;23;20020;-82
2023/01/07 10:15:14;;;;;;;9.93;5.65;;;9.80;99.90;;;;;;6152155;23;20021;-82
2023/01/07 10:17:53;;;;;;;8.68;5.28;;;9.80;99.90;;;;;;6152079;23;20021;-82
2023/01/07 10:21:01;;;;;;;7.43;5.55;;;9.80;99.90;;;;;;6152070;23;20014;-81
2023/01/07 10:23:30;;;;;;;7.57;5.28;;;9.80;99.90;;;;;;6153804;23;20068;-82
2023/01/07 10:25:59;;;;;;;9.30;5.53;;;9.90;99.90;;;;;;6153673;23;20021;-82
2023/01/07 10:28:45;;;;;;;6.20;5.60;;;9.90;99.90;;;;;;6127386;23;20014;-81
2023/01/07 10:31:21;;;;;;;7.75;5.13;;;9.90;99.90;;;;;;6152159;23;20017;-82
2023/01/07 10:33:48;;;;;;;9.57;5.13;;;10.00;99.90;;;;;;6151957;23;20017;-82
2023/01/07 10:36:22;;;;;;;7.30;5.32;;;9.80;99.90;;;;;;6127083;23;20436;-82
2023/01/07 10:38:59;;;;;;;7.20;5.30;;;9.90;99.90;;;;;;6152033;23;20052;-82
2023/01/07 10:41:55;;;;;;;6.00;4.72;;;10.00;99.90;;;;;;6152125;23;20084;-83
2023/01/07 10:44:58;;;;;;;8.20;4.82;;;10.10;99.90;;;;;;6152096;23;20018;-82
2023/01/07 10:47:30;;;;;;;7.00;4.17;;;10.10;99.90;;;;;;6127551;23;20092;-82
2023/01/07 10:50:24;;;;;;;6.10;4.40;;;10.20;99.90;;;;;;6151762;23;20241;-81
2023/01/07 10:53:01;;;;;;;8.25;4.65;;;10.30;99.90;;;;;;6152024;23;20017;-82
2023/01/07 10:55:43;;;;;;;7.63;3.90;;;10.30;99.90;;;;;;6151765;23;20093;-82
2023/01/07 10:58:10;;;;;;;5.70;4.00;;;10.40;99.90;;;;;;6151609;23;20427;-82
2023/01/07 11:00:38;;;;;;;4.80;3.72;;;10.40;99.90;;;;;;6152096;23;20136;-81
2023/01/07 11:03:03;;;;;;;6.80;4.00;;;10.40;99.90;;;;;;6127266;23;20085;-82
2023/01/07 11:05:37;;;;;;;5.93;3.72;;;10.40;99.90;;;;;;6153522;23;20049;-81
2023/01/07 11:08:05;;;;;;;;;;;10.50;99.90;;;;;;6153871;23;20429;-82
2023/01/07 11:10:35;;;;;;;5.88;3.80;;;10.50;99.90;;;;;;6153540;23;19917;-81
2023/01/07 11:13:27;;;;;;;6.80;3.63;;;10.60;99.90;;;;;;6127030;23;20053;-82
2023/01/07 11:16:06;;;;;;;9.43;3.50;;;10.60;99.90;;;;;;6127139;23;20022;-82
2023/01/07 11:18:43;;;;;;;5.38;3.35;;;10.60;99.90;;;;;;6152019;23;20014;-81
2023/01/07 11:21:09;;;;;;;5.20;3.30;;;10.60;99.90;;;;;;6151538;23;20013;-81
2023/01/07 11:23:37;;;;;;;5.32;3.15;;;10.70;99.90;;;;;;6151937;23;20017;-81
2023/01/07 11:26:27;;;;;;;4.85;2.95;;;10.70;99.90;;;;;;6152579;23;20021;-81
2023/01/07 11:28:55;;;;;;;4.40;3.05;;;10.80;99.90;;;;;;6151719;23;20017;-81
2023/01/07 11:31:45;;;;;;;6.15;3.20;;;10.80;99.90;;;;;;6154577;23;20088;-81
2023/01/07 11:34:30;;;;;;;5.28;3.30;;;10.90;99.90;;;;;;6155105;23;20445;-81
2023/01/07 11:36:56;;;;;;;5.90;2.83;;;10.90;99.90;;;;;;6154022;23;20064;-81
2023/01/07 11:39:30;;;;;;;4.20;2.65;;;11.00;99.90;;;;;;6155411;23;20438;-80
2023/01/07 11:45:24;;;;;;;3.85;2.90;;;10.90;99.90;;;;;;6155342;23;20039;-81
2023/01/07 11:48:04;;;;;;;3.92;2.38;;;10.90;99.90;;;;;;6153166;23;20017;-82
2023/01/07 11:50:39;;;;;;;6.38;3.65;;;10.90;99.90;;;;;;6153172;23;20049;-82
2023/01/07 11:53:14;;;;;;;13.40;10.73;;;10.90;99.90;;;;;;6154821;23;20013;-82
2023/01/07 11:56:02;;;;;;;5.43;4.13;;;11.00;99.90;;;;;;6154214;23;20440;-82
2023/01/07 11:58:34;;;;;;;13.43;10.23;;;11.00;99.90;;;;;;6153365;23;20017;-82
2023/01/07 12:01:06;;;;;;;10.68;6.93;;;11.00;99.90;;;;;;6152888;23;20019;-82
2023/01/07 12:03:32;;;;;;;26.48;18.60;;;11.00;99.90;;;;;;6152822;23;20018;-82
2023/01/07 12:06:24;;;;;;;6.68;4.70;;;10.90;99.90;;;;;;6152548;23;20101;-82
2023/01/07 12:08:54;;;;;;;8.55;6.32;;;10.90;99.90;;;;;;6140379;23;20025;-81
2023/01/07 12:11:21;;;;;;;9.77;5.75;;;10.90;99.90;;;;;;6153075;23;20100;-82
2023/01/07 12:13:51;;;;;;;8.13;5.47;;;10.90;99.90;;;;;;6152416;23;20029;-81
2023/01/07 12:16:26;;;;;;;9.77;5.30;;;11.00;99.90;;;;;;6152609;23;20448;-81
2023/01/07 12:19:04;;;;;;;17.55;13.02;;;11.00;99.90;;;;;;6154648;23;20014;-82
2023/01/07 12:21:31;;;;;;;7.38;4.30;;;11.00;99.90;;;;;;6154465;23;20021;-82
2023/01/07 12:24:11;;;;;;;11.52;8.73;;;10.90;99.90;;;;;;6153953;23;20089;-82
2023/01/07 12:26:42;;;;;;;5.10;2.92;;;11.00;99.90;;;;;;6154474;23;20028;-82
2023/01/07 12:29:40;;;;;;;6.80;3.55;;;11.00;99.90;;;;;;6154364;23;20084;-81
2023/01/07 12:32:08;;;;;;;5.45;2.42;;;11.00;99.90;;;;;;6154102;23;20379;-82
2023/01/07 12:34:39;;;;;;;4.47;2.03;;;11.00;99.90;;;;;;6152331;23;20060;-82
2023/01/07 12:37:14;;;;;;;5.18;2.40;;;11.00;99.90;;;;;;6152354;23;20355;-81
2023/01/07 12:39:43;;;;;;;4.40;2.60;;;11.00;99.90;;;;;;6152275;23;20075;-81
2023/01/07 12:42:21;;;;;;;5.68;3.05;;;11.00;99.90;;;;;;6152203;23;20068;-82
2023/01/07 12:44:50;;;;;;;21.80;16.00;;;10.90;99.90;;;;;;6154489;23;20018;-82
2023/01/07 12:47:28;;;;;;;6.15;3.30;;;10.90;99.90;;;;;;6152458;23;20078;-82
2023/01/07 12:50:02;;;;;;;6.13;3.60;;;10.90;99.90;;;;;;6152284;23;20036;-82
2023/01/07 12:53:00;;;;;;;7.38;2.80;;;11.00;99.90;;;;;;6153805;23;20017;-81
2023/01/07 12:55:40;;;;;;;5.05;2.72;;;10.90;99.90;;;;;;6133028;23;20387;-82